sensor_id;sensor_type;location;lat;lon;timestamp;P1;durP1;ratioP1;P2;durP2;ratioP2
14776;SDS011;7480;43.124;25.686;2023-10-31T00:01:04;4.90;;;2.63;;
14776;SDS011;7480;43.124;25.686;2023-10-31T00:03:31;4.17;;;2.70;;
14776;SDS011;7480;43.124;25.686;2023-10-31T00:05:59;4.57;;;2.80;;
14776;SDS011;7480;43.124;25.686;2023-10-31T00:08:26;5.77;;;2.67;;
14776;SDS011;7480;43.124;25.686;2023-10-31T00:10:52;7.53;;;3.63;;
14776;SDS011;7480;43.124;25.686;2023-10-31T00:13:19;5.10;;;2.97;;
14776;SDS011;7480;43.124;25.686;2023-10-31T00:15:46;6.27;;;3.40;;
14776;SDS011;7480;43.124;25.686;2023-10-31T00:18:13;4.40;;;2.83;;
14776;SDS011;7480;43.124;25.686;2023-10-31T00:20:39;9.57;;;3.20;;
14776;SDS011;7480;43.124;25.686;2023-10-31T00:23:06;10.93;;;3.67;;
14776;SDS011;7480;43.124;25.686;2023-10-31T00:25:33;5.07;;;2.97;;
14776;SDS011;7480;43.124;25.686;2023-10-31T00:27:59;6.10;;;3.00;;
14776;SDS011;7480;43.124;25.686;2023-10-31T00:30:26;6.93;;;3.57;;
14776;SDS011;7480;43.124;25.686;2023-10-31T00:32:53;5.23;;;2.97;;
14776;SDS011;7480;43.124;25.686;2023-10-31T00:35:19;4.60;;;2.90;;
14776;SDS011;7480;43.124;25.686;2023-10-31T00:37:46;3.67;;;2.77;;
14776;SDS011;7480;43.124;25.686;2023-10-31T00:40:13;6.27;;;3.33;;
14776;SDS011;7480;43.124;25.686;2023-10-31T00:42:40;8.07;;;2.93;;
14776;SDS011;7480;43.124;25.686;2023-10-31T00:45:08;6.43;;;3.13;;
14776;SDS011;7480;43.124;25.686;2023-10-31T00:47:35;5.20;;;3.03;;
14776;SDS011;7480;43.124;25.686;2023-10-31T00:50:02;5.73;;;2.87;;
14776;SDS011;7480;43.124;25.686;2023-10-31T00:52:29;6.53;;;3.50;;
14776;SDS011;7480;43.124;25.686;2023-10-31T00:54:56;12.07;;;3.43;;
14776;SDS011;7480;43.124;25.686;2023-10-31T00:57:23;6.27;;;3.00;;
14776;SDS011;7480;43.124;25.686;2023-10-31T00:59:49;5.87;;;4.03;;
14776;SDS011;7480;43.124;25.686;2023-10-31T01:02:16;5.27;;;3.23;;
14776;SDS011;7480;43.124;25.686;2023-10-31T01:04:43;7.13;;;3.60;;
14776;SDS011;7480;43.124;25.686;2023-10-31T01:07:09;4.00;;;3.00;;
14776;SDS011;7480;43.124;25.686;2023-10-31T01:09:38;5.47;;;3.47;;
14776;SDS011;7480;43.124;25.686;2023-10-31T01:12:05;7.30;;;3.80;;
14776;SDS011;7480;43.124;25.686;2023-10-31T01:14:32;5.10;;;3.73;;
14776;SDS011;7480;43.124;25.686;2023-10-31T01:16:58;6.07;;;3.73;;
14776;SDS011;7480;43.124;25.686;2023-10-31T01:19:25;7.83;;;3.43;;
14776;SDS011;7480;43.124;25.686;2023-10-31T01:21:52;7.93;;;3.90;;
14776;SDS011;7480;43.124;25.686;2023-10-31T01:24:18;6.23;;;3.50;;
14776;SDS011;7480;43.124;25.686;2023-10-31T01:26:45;8.93;;;4.03;;
14776;SDS011;7480;43.124;25.686;2023-10-31T01:29:12;9.03;;;4.33;;
14776;SDS011;7480;43.124;25.686;2023-10-31T01:31:40;6.73;;;3.57;;
14776;SDS011;7480;43.124;25.686;2023-10-31T01:34:24;6.67;;;3.63;;
14776;SDS011;7480;43.124;25.686;2023-10-31T01:36:51;5.53;;;3.73;;
14776;SDS011;7480;43.124;25.686;2023-10-31T01:39:18;5.50;;;4.03;;
14776;SDS011;7480;43.124;25.686;2023-10-31T01:41:44;4.60;;;3.60;;
14776;SDS011;7480;43.124;25.686;2023-10-31T01:44:11;5.77;;;3.80;;
14776;SDS011;7480;43.124;25.686;2023-10-31T01:46:38;7.90;;;3.67;;
14776;SDS011;7480;43.124;25.686;2023-10-31T01:49:04;9.27;;;4.93;;
14776;SDS011;7480;43.124;25.686;2023-10-31T01:51:31;8.17;;;5.10;;
14776;SDS011;7480;43.124;25.686;2023-10-31T01:53:58;8.30;;;5.07;;
14776;SDS011;7480;43.124;25.686;2023-10-31T01:56:25;6.57;;;4.03;;
14776;SDS011;7480;43.124;25.686;2023-10-31T01:58:51;6.10;;;4.37;;
14776;SDS011;7480;43.124;25.686;2023-10-31T02:01:19;7.50;;;4.27;;
14776;SDS011;7480;43.124;25.686;2023-10-31T02:03:46;5.83;;;4.10;;
14776;SDS011;7480;43.124;25.686;2023-10-31T02:06:13;5.70;;;4.30;;
14776;SDS011;7480;43.124;25.686;2023-10-31T02:08:40;7.93;;;3.97;;
14776;SDS011;7480;43.124;25.686;2023-10-31T02:11:07;5.87;;;4.10;;
14776;SDS011;7480;43.124;25.686;2023-10-31T02:13:36;6.40;;;3.93;;
14776;SDS011;7480;43.124;25.686;2023-10-31T02:16:04;9.17;;;5.10;;
14776;SDS011;7480;43.124;25.686;2023-10-31T02:18:31;8.53;;;5.50;;
14776;SDS011;7480;43.124;25.686;2023-10-31T02:20:58;10.33;;;4.90;;
14776;SDS011;7480;43.124;25.686;2023-10-31T02:23:25;9.57;;;5.03;;
14776;SDS011;7480;43.124;25.686;2023-10-31T02:25:52;8.17;;;4.77;;
14776;SDS011;7480;43.124;25.686;2023-10-31T02:28:19;8.13;;;4.83;;
14776;SDS011;7480;43.124;25.686;2023-10-31T02:30:45;6.63;;;4.57;;
14776;SDS011;7480;43.124;25.686;2023-10-31T02:33:12;9.53;;;5.30;;
14776;SDS011;7480;43.124;25.686;2023-10-31T02:35:39;9.50;;;4.77;;
14776;SDS011;7480;43.124;25.686;2023-10-31T02:38:05;7.97;;;4.80;;
14776;SDS011;7480;43.124;25.686;2023-10-31T02:40:32;7.17;;;5.33;;
14776;SDS011;7480;43.124;25.686;2023-10-31T02:42:59;5.57;;;5.00;;
14776;SDS011;7480;43.124;25.686;2023-10-31T02:45:25;7.07;;;4.40;;
14776;SDS011;7480;43.124;25.686;2023-10-31T02:47:52;7.37;;;4.80;;
14776;SDS011;7480;43.124;25.686;2023-10-31T02:50:19;8.27;;;4.87;;
14776;SDS011;7480;43.124;25.686;2023-10-31T02:52:45;6.87;;;4.80;;
14776;SDS011;7480;43.124;25.686;2023-10-31T02:55:12;9.60;;;5.10;;
14776;SDS011;7480;43.124;25.686;2023-10-31T02:57:39;5.83;;;4.30;;
14776;SDS011;7480;43.124;25.686;2023-10-31T03:00:06;6.47;;;4.40;;
14776;SDS011;7480;43.124;25.686;2023-10-31T03:02:33;8.13;;;4.70;;
14776;SDS011;7480;43.124;25.686;2023-10-31T03:04:59;6.07;;;4.57;;
14776;SDS011;7480;43.124;25.686;2023-10-31T03:07:26;7.53;;;5.10;;
14776;SDS011;7480;43.124;25.686;2023-10-31T03:09:53;7.40;;;4.50;;
14776;SDS011;7480;43.124;25.686;2023-10-31T03:12:20;9.80;;;4.70;;
14776;SDS011;7480;43.124;25.686;2023-10-31T03:14:47;8.35;;;4.35;;
14776;SDS011;7480;43.124;25.686;2023-10-31T03:17:14;11.20;;;4.77;;
14776;SDS011;7480;43.124;25.686;2023-10-31T03:19:40;8.30;;;5.07;;
14776;SDS011;7480;43.124;25.686;2023-10-31T03:22:07;9.80;;;4.80;;
14776;SDS011;7480;43.124;25.686;2023-10-31T03:24:34;7.80;;;5.10;;
14776;SDS011;7480;43.124;25.686;2023-10-31T03:27:00;12.40;;;5.50;;
14776;SDS011;7480;43.124;25.686;2023-10-31T03:29:27;5.67;;;4.43;;
14776;SDS011;7480;43.124;25.686;2023-10-31T03:31:54;8.03;;;4.97;;
14776;SDS011;7480;43.124;25.686;2023-10-31T03:34:21;12.37;;;5.57;;
14776;SDS011;7480;43.124;25.686;2023-10-31T03:36:47;14.00;;;5.43;;
14776;SDS011;7480;43.124;25.686;2023-10-31T03:39:14;8.63;;;5.80;;
14776;SDS011;7480;43.124;25.686;2023-10-31T03:41:41;9.20;;;5.40;;
14776;SDS011;7480;43.124;25.686;2023-10-31T03:44:08;9.17;;;5.13;;
14776;SDS011;7480;43.124;25.686;2023-10-31T03:46:35;7.17;;;4.97;;
14776;SDS011;7480;43.124;25.686;2023-10-31T03:49:02;8.63;;;5.07;;
14776;SDS011;7480;43.124;25.686;2023-10-31T03:51:29;9.13;;;5.40;;
14776;SDS011;7480;43.124;25.686;2023-10-31T03:53:56;6.43;;;4.60;;
14776;SDS011;7480;43.124;25.686;2023-10-31T03:56:22;5.93;;;4.30;;
14776;SDS011;7480;43.124;25.686;2023-10-31T03:58:49;9.30;;;5.33;;
14776;SDS011;7480;43.124;25.686;2023-10-31T04:01:16;6.27;;;5.00;;
14776;SDS011;7480;43.124;25.686;2023-10-31T04:03:43;10.27;;;4.90;;
14776;SDS011;7480;43.124;25.686;2023-10-31T04:06:10;9.50;;;5.20;;
14776;SDS011;7480;43.124;25.686;2023-10-31T04:08:37;8.40;;;5.07;;
14776;SDS011;7480;43.124;25.686;2023-10-31T04:11:03;9.63;;;5.07;;
14776;SDS011;7480;43.124;25.686;2023-10-31T04:13:30;8.23;;;5.40;;
14776;SDS011;7480;43.124;25.686;2023-10-31T04:16:00;12.63;;;5.07;;
14776;SDS011;7480;43.124;25.686;2023-10-31T04:18:26;8.40;;;4.87;;
14776;SDS011;7480;43.124;25.686;2023-10-31T04:20:53;10.47;;;5.07;;
14776;SDS011;7480;43.124;25.686;2023-10-31T04:23:20;11.43;;;5.33;;
14776;SDS011;7480;43.124;25.686;2023-10-31T04:25:46;6.73;;;5.40;;
14776;SDS011;7480;43.124;25.686;2023-10-31T04:28:13;8.10;;;5.00;;
14776;SDS011;7480;43.124;25.686;2023-10-31T04:30:41;8.03;;;5.00;;
14776;SDS011;7480;43.124;25.686;2023-10-31T04:33:07;6.20;;;5.23;;
14776;SDS011;7480;43.124;25.686;2023-10-31T04:35:34;7.60;;;5.13;;
14776;SDS011;7480;43.124;25.686;2023-10-31T04:38:01;10.30;;;5.13;;
14776;SDS011;7480;43.124;25.686;2023-10-31T04:40:27;7.60;;;4.90;;
14776;SDS011;7480;43.124;25.686;2023-10-31T04:42:54;14.03;;;5.50;;
14776;SDS011;7480;43.124;25.686;2023-10-31T04:45:21;9.03;;;5.50;;
14776;SDS011;7480;43.124;25.686;2023-10-31T04:47:48;13.80;;;5.67;;
14776;SDS011;7480;43.124;25.686;2023-10-31T04:50:15;13.77;;;5.37;;
14776;SDS011;7480;43.124;25.686;2023-10-31T04:52:41;9.40;;;5.30;;
14776;SDS011;7480;43.124;25.686;2023-10-31T04:55:08;12.27;;;6.50;;
14776;SDS011;7480;43.124;25.686;2023-10-31T04:57:35;13.13;;;6.17;;
14776;SDS011;7480;43.124;25.686;2023-10-31T05:00:02;7.60;;;4.73;;
14776;SDS011;7480;43.124;25.686;2023-10-31T05:02:32;8.23;;;4.87;;
14776;SDS011;7480;43.124;25.686;2023-10-31T05:04:58;7.83;;;5.03;;
14776;SDS011;7480;43.124;25.686;2023-10-31T05:07:25;8.50;;;4.83;;
14776;SDS011;7480;43.124;25.686;2023-10-31T05:09:52;5.47;;;4.30;;
14776;SDS011;7480;43.124;25.686;2023-10-31T05:12:19;7.17;;;5.00;;
14776;SDS011;7480;43.124;25.686;2023-10-31T05:14:45;7.77;;;4.90;;
14776;SDS011;7480;43.124;25.686;2023-10-31T05:17:12;7.83;;;5.07;;
14776;SDS011;7480;43.124;25.686;2023-10-31T05:19:39;10.33;;;5.00;;
14776;SDS011;7480;43.124;25.686;2023-10-31T05:22:05;7.40;;;5.43;;
14776;SDS011;7480;43.124;25.686;2023-10-31T05:24:32;7.87;;;4.50;;
14776;SDS011;7480;43.124;25.686;2023-10-31T05:26:59;7.40;;;4.33;;
14776;SDS011;7480;43.124;25.686;2023-10-31T05:29:25;7.43;;;4.30;;
14776;SDS011;7480;43.124;25.686;2023-10-31T05:31:52;8.35;;;4.68;;
14776;SDS011;7480;43.124;25.686;2023-10-31T05:34:19;8.47;;;4.90;;
14776;SDS011;7480;43.124;25.686;2023-10-31T05:36:45;11.90;;;6.53;;
14776;SDS011;7480;43.124;25.686;2023-10-31T05:39:12;10.23;;;6.70;;
14776;SDS011;7480;43.124;25.686;2023-10-31T05:41:39;9.50;;;6.13;;
14776;SDS011;7480;43.124;25.686;2023-10-31T05:44:06;10.60;;;6.23;;
14776;SDS011;7480;43.124;25.686;2023-10-31T05:46:37;12.33;;;5.17;;
14776;SDS011;7480;43.124;25.686;2023-10-31T05:49:08;16.47;;;7.40;;
14776;SDS011;7480;43.124;25.686;2023-10-31T05:51:34;10.87;;;6.23;;
14776;SDS011;7480;43.124;25.686;2023-10-31T05:54:02;7.40;;;5.23;;
14776;SDS011;7480;43.124;25.686;2023-10-31T05:56:28;23.90;;;7.43;;
14776;SDS011;7480;43.124;25.686;2023-10-31T05:58:55;10.33;;;5.30;;
14776;SDS011;7480;43.124;25.686;2023-10-31T06:01:22;9.83;;;6.17;;
14776;SDS011;7480;43.124;25.686;2023-10-31T06:03:48;15.73;;;5.73;;
14776;SDS011;7480;43.124;25.686;2023-10-31T06:06:15;9.40;;;5.50;;
14776;SDS011;7480;43.124;25.686;2023-10-31T06:08:42;10.47;;;4.80;;
14776;SDS011;7480;43.124;25.686;2023-10-31T06:11:09;8.13;;;4.40;;
14776;SDS011;7480;43.124;25.686;2023-10-31T06:13:39;7.23;;;4.07;;
14776;SDS011;7480;43.124;25.686;2023-10-31T06:16:05;7.70;;;4.10;;
14776;SDS011;7480;43.124;25.686;2023-10-31T06:18:33;6.80;;;3.97;;
14776;SDS011;7480;43.124;25.686;2023-10-31T06:21:01;5.80;;;3.53;;
14776;SDS011;7480;43.124;25.686;2023-10-31T06:23:27;5.43;;;4.10;;
14776;SDS011;7480;43.124;25.686;2023-10-31T06:25:58;5.03;;;3.80;;
14776;SDS011;7480;43.124;25.686;2023-10-31T06:28:24;5.43;;;4.50;;
14776;SDS011;7480;43.124;25.686;2023-10-31T06:30:51;6.67;;;4.47;;
14776;SDS011;7480;43.124;25.686;2023-10-31T06:33:18;10.70;;;4.90;;
14776;SDS011;7480;43.124;25.686;2023-10-31T06:35:44;9.13;;;4.60;;
14776;SDS011;7480;43.124;25.686;2023-10-31T06:38:11;6.23;;;4.57;;
14776;SDS011;7480;43.124;25.686;2023-10-31T06:40:38;6.33;;;4.27;;
14776;SDS011;7480;43.124;25.686;2023-10-31T06:43:04;6.17;;;4.10;;
14776;SDS011;7480;43.124;25.686;2023-10-31T06:45:31;8.50;;;3.63;;
14776;SDS011;7480;43.124;25.686;2023-10-31T06:47:59;6.50;;;3.57;;
14776;SDS011;7480;43.124;25.686;2023-10-31T06:50:26;6.33;;;3.30;;
14776;SDS011;7480;43.124;25.686;2023-10-31T06:52:53;5.07;;;3.80;;
14776;SDS011;7480;43.124;25.686;2023-10-31T06:55:19;7.10;;;3.30;;
14776;SDS011;7480;43.124;25.686;2023-10-31T06:57:46;6.47;;;3.10;;
14776;SDS011;7480;43.124;25.686;2023-10-31T07:00:13;4.77;;;2.97;;
14776;SDS011;7480;43.124;25.686;2023-10-31T07:02:41;10.03;;;3.57;;
14776;SDS011;7480;43.124;25.686;2023-10-31T07:05:07;8.77;;;4.10;;
14776;SDS011;7480;43.124;25.686;2023-10-31T07:07:34;5.97;;;3.47;;
14776;SDS011;7480;43.124;25.686;2023-10-31T07:10:01;10.27;;;3.70;;
14776;SDS011;7480;43.124;25.686;2023-10-31T07:12:28;9.43;;;4.27;;
14776;SDS011;7480;43.124;25.686;2023-10-31T07:14:54;10.77;;;4.30;;
14776;SDS011;7480;43.124;25.686;2023-10-31T07:17:21;12.00;;;4.03;;
14776;SDS011;7480;43.124;25.686;2023-10-31T07:19:48;9.47;;;4.10;;
14776;SDS011;7480;43.124;25.686;2023-10-31T07:22:15;8.10;;;4.30;;
14776;SDS011;7480;43.124;25.686;2023-10-31T07:24:41;5.57;;;3.80;;
14776;SDS011;7480;43.124;25.686;2023-10-31T07:27:09;7.40;;;4.00;;
14776;SDS011;7480;43.124;25.686;2023-10-31T07:29:38;9.87;;;3.93;;
14776;SDS011;7480;43.124;25.686;2023-10-31T07:32:07;7.67;;;4.43;;
14776;SDS011;7480;43.124;25.686;2023-10-31T07:34:36;7.10;;;3.97;;
14776;SDS011;7480;43.124;25.686;2023-10-31T07:37:03;9.80;;;4.40;;
14776;SDS011;7480;43.124;25.686;2023-10-31T07:39:30;8.53;;;3.97;;
14776;SDS011;7480;43.124;25.686;2023-10-31T07:41:56;13.07;;;4.83;;
14776;SDS011;7480;43.124;25.686;2023-10-31T07:44:23;10.63;;;4.97;;
14776;SDS011;7480;43.124;25.686;2023-10-31T07:46:50;10.23;;;4.03;;
14776;SDS011;7480;43.124;25.686;2023-10-31T07:49:17;8.20;;;4.43;;
14776;SDS011;7480;43.124;25.686;2023-10-31T07:51:44;8.10;;;4.07;;
14776;SDS011;7480;43.124;25.686;2023-10-31T07:54:12;7.30;;;4.10;;
14776;SDS011;7480;43.124;25.686;2023-10-31T07:56:38;10.83;;;4.67;;
14776;SDS011;7480;43.124;25.686;2023-10-31T07:59:06;8.17;;;5.17;;
14776;SDS011;7480;43.124;25.686;2023-10-31T08:01:34;8.10;;;4.23;;
14776;SDS011;7480;43.124;25.686;2023-10-31T08:04:01;15.43;;;4.70;;
14776;SDS011;7480;43.124;25.686;2023-10-31T08:06:28;6.93;;;3.93;;
14776;SDS011;7480;43.124;25.686;2023-10-31T08:08:55;11.87;;;4.57;;
14776;SDS011;7480;43.124;25.686;2023-10-31T08:11:22;12.00;;;5.43;;
14776;SDS011;7480;43.124;25.686;2023-10-31T08:13:49;11.57;;;4.93;;
14776;SDS011;7480;43.124;25.686;2023-10-31T08:16:16;9.20;;;4.00;;
14776;SDS011;7480;43.124;25.686;2023-10-31T08:18:45;10.20;;;5.00;;
14776;SDS011;7480;43.124;25.686;2023-10-31T08:21:12;15.40;;;4.80;;
14776;SDS011;7480;43.124;25.686;2023-10-31T08:23:39;8.13;;;4.60;;
14776;SDS011;7480;43.124;25.686;2023-10-31T08:26:06;11.17;;;4.47;;
14776;SDS011;7480;43.124;25.686;2023-10-31T08:28:33;10.23;;;3.88;;
14776;SDS011;7480;43.124;25.686;2023-10-31T08:31:00;11.82;;;3.97;;
14776;SDS011;7480;43.124;25.686;2023-10-31T08:33:26;11.00;;;3.72;;
14776;SDS011;7480;43.124;25.686;2023-10-31T08:35:53;10.05;;;3.80;;
14776;SDS011;7480;43.124;25.686;2023-10-31T08:38:20;8.90;;;4.05;;
14776;SDS011;7480;43.124;25.686;2023-10-31T08:40:57;11.48;;;3.67;;
14776;SDS011;7480;43.124;25.686;2023-10-31T08:43:25;8.15;;;3.42;;
14776;SDS011;7480;43.124;25.686;2023-10-31T08:45:52;9.57;;;3.90;;
14776;SDS011;7480;43.124;25.686;2023-10-31T08:48:19;10.20;;;4.05;;
14776;SDS011;7480;43.124;25.686;2023-10-31T08:50:45;8.07;;;4.40;;
14776;SDS011;7480;43.124;25.686;2023-10-31T08:53:12;11.15;;;4.82;;
14776;SDS011;7480;43.124;25.686;2023-10-31T08:55:39;9.90;;;4.03;;
14776;SDS011;7480;43.124;25.686;2023-10-31T08:58:13;6.75;;;3.30;;
14776;SDS011;7480;43.124;25.686;2023-10-31T09:00:40;7.28;;;3.25;;
14776;SDS011;7480;43.124;25.686;2023-10-31T09:03:07;5.13;;;3.33;;
14776;SDS011;7480;43.124;25.686;2023-10-31T09:05:35;7.05;;;3.15;;
14776;SDS011;7480;43.124;25.686;2023-10-31T09:08:01;8.35;;;3.58;;
14776;SDS011;7480;43.124;25.686;2023-10-31T09:10:28;7.95;;;3.35;;
14776;SDS011;7480;43.124;25.686;2023-10-31T09:12:55;4.55;;;3.10;;
14776;SDS011;7480;43.124;25.686;2023-10-31T09:15:22;5.70;;;2.95;;
14776;SDS011;7480;43.124;25.686;2023-10-31T09:17:49;10.40;;;3.75;;
14776;SDS011;7480;43.124;25.686;2023-10-31T09:20:16;4.65;;;2.83;;
14776;SDS011;7480;43.124;25.686;2023-10-31T09:22:43;5.68;;;2.47;;
14776;SDS011;7480;43.124;25.686;2023-10-31T09:25:10;4.75;;;2.75;;
14776;SDS011;7480;43.124;25.686;2023-10-31T09:27:38;5.00;;;2.92;;
14776;SDS011;7480;43.124;25.686;2023-10-31T09:30:06;5.30;;;2.00;;
14776;SDS011;7480;43.124;25.686;2023-10-31T09:32:33;3.72;;;2.03;;
14776;SDS011;7480;43.124;25.686;2023-10-31T09:35:00;9.93;;;1.88;;
14776;SDS011;7480;43.124;25.686;2023-10-31T09:37:27;2.30;;;1.50;;
14776;SDS011;7480;43.124;25.686;2023-10-31T09:39:53;3.10;;;1.35;;
14776;SDS011;7480;43.124;25.686;2023-10-31T09:42:20;4.60;;;1.58;;
14776;SDS011;7480;43.124;25.686;2023-10-31T09:44:47;2.05;;;1.20;;
14776;SDS011;7480;43.124;25.686;2023-10-31T09:47:14;2.83;;;1.23;;
14776;SDS011;7480;43.124;25.686;2023-10-31T09:49:41;3.38;;;1.42;;
14776;SDS011;7480;43.124;25.686;2023-10-31T09:52:08;2.10;;;1.42;;
14776;SDS011;7480;43.124;25.686;2023-10-31T09:54:35;2.38;;;1.15;;
14776;SDS011;7480;43.124;25.686;2023-10-31T09:57:03;1.77;;;1.30;;
14776;SDS011;7480;43.124;25.686;2023-10-31T09:59:31;2.85;;;1.70;;
14776;SDS011;7480;43.124;25.686;2023-10-31T10:02:00;3.00;;;1.50;;
14776;SDS011;7480;43.124;25.686;2023-10-31T10:04:27;1.83;;;1.33;;
14776;SDS011;7480;43.124;25.686;2023-10-31T10:06:58;4.43;;;1.48;;
14776;SDS011;7480;43.124;25.686;2023-10-31T10:09:26;2.00;;;1.50;;
14776;SDS011;7480;43.124;25.686;2023-10-31T10:11:54;4.43;;;1.33;;
14776;SDS011;7480;43.124;25.686;2023-10-31T10:14:24;2.95;;;1.63;;
14776;SDS011;7480;43.124;25.686;2023-10-31T10:16:52;5.03;;;1.60;;
14776;SDS011;7480;43.124;25.686;2023-10-31T10:19:20;3.53;;;1.38;;
14776;SDS011;7480;43.124;25.686;2023-10-31T10:24:18;4.00;;;1.42;;
14776;SDS011;7480;43.124;25.686;2023-10-31T10:26:45;1.63;;;1.30;;
14776;SDS011;7480;43.124;25.686;2023-10-31T10:29:12;3.35;;;1.20;;
14776;SDS011;7480;43.124;25.686;2023-10-31T10:31:40;1.40;;;1.30;;
14776;SDS011;7480;43.124;25.686;2023-10-31T10:34:13;3.47;;;1.67;;
14776;SDS011;7480;43.124;25.686;2023-10-31T10:36:40;3.15;;;1.50;;
14776;SDS011;7480;43.124;25.686;2023-10-31T10:39:11;2.50;;;1.50;;
14776;SDS011;7480;43.124;25.686;2023-10-31T10:41:37;1.77;;;1.40;;
14776;SDS011;7480;43.124;25.686;2023-10-31T10:44:07;3.63;;;1.45;;
14776;SDS011;7480;43.124;25.686;2023-10-31T10:46:34;3.35;;;1.38;;
14776;SDS011;7480;43.124;25.686;2023-10-31T10:49:06;3.15;;;1.48;;
14776;SDS011;7480;43.124;25.686;2023-10-31T10:51:50;2.23;;;1.32;;
14776;SDS011;7480;43.124;25.686;2023-10-31T10:55:04;2.10;;;1.20;;
14776;SDS011;7480;43.124;25.686;2023-10-31T11:00:07;2.00;;;1.60;;
14776;SDS011;7480;43.124;25.686;2023-10-31T11:02:44;2.60;;;1.50;;
14776;SDS011;7480;43.124;25.686;2023-10-31T11:05:11;2.47;;;1.50;;
14776;SDS011;7480;43.124;25.686;2023-10-31T11:07:39;2.28;;;1.35;;
14776;SDS011;7480;43.124;25.686;2023-10-31T11:10:06;1.83;;;1.35;;
14776;SDS011;7480;43.124;25.686;2023-10-31T11:12:34;2.80;;;1.73;;
14776;SDS011;7480;43.124;25.686;2023-10-31T11:15:02;2.60;;;1.65;;
14776;SDS011;7480;43.124;25.686;2023-10-31T11:17:31;2.40;;;1.50;;
14776;SDS011;7480;43.124;25.686;2023-10-31T11:20:00;2.35;;;1.45;;
14776;SDS011;7480;43.124;25.686;2023-10-31T11:22:45;3.95;;;1.65;;
14776;SDS011;7480;43.124;25.686;2023-10-31T11:25:13;2.13;;;1.70;;
14776;SDS011;7480;43.124;25.686;2023-10-31T11:27:54;2.55;;;2.00;;
14776;SDS011;7480;43.124;25.686;2023-10-31T11:30:29;6.57;;;4.10;;
14776;SDS011;7480;43.124;25.686;2023-10-31T11:33:00;1.88;;;1.67;;
14776;SDS011;7480;43.124;25.686;2023-10-31T11:35:32;1.50;;;1.40;;
14776;SDS011;7480;43.124;25.686;2023-10-31T11:38:03;2.50;;;1.50;;
14776;SDS011;7480;43.124;25.686;2023-10-31T11:40:34;2.47;;;1.63;;
14776;SDS011;7480;43.124;25.686;2023-10-31T11:43:03;3.15;;;1.63;;
14776;SDS011;7480;43.124;25.686;2023-10-31T11:45:35;3.42;;;1.63;;
14776;SDS011;7480;43.124;25.686;2023-10-31T11:48:08;1.92;;;1.40;;
14776;SDS011;7480;43.124;25.686;2023-10-31T11:50:37;3.50;;;1.50;;
14776;SDS011;7480;43.124;25.686;2023-10-31T11:55:36;2.35;;;1.35;;
14776;SDS011;7480;43.124;25.686;2023-10-31T12:00:48;1.88;;;1.48;;
14776;SDS011;7480;43.124;25.686;2023-10-31T12:03:18;2.80;;;2.05;;
14776;SDS011;7480;43.124;25.686;2023-10-31T12:06:06;3.30;;;1.73;;
14776;SDS011;7480;43.124;25.686;2023-10-31T12:08:35;2.85;;;1.55;;
14776;SDS011;7480;43.124;25.686;2023-10-31T12:16:27;5.18;;;1.85;;
14776;SDS011;7480;43.124;25.686;2023-10-31T12:18:56;2.00;;;1.63;;
14776;SDS011;7480;43.124;25.686;2023-10-31T12:21:34;2.72;;;1.70;;
14776;SDS011;7480;43.124;25.686;2023-10-31T12:24:10;2.03;;;1.60;;
14776;SDS011;7480;43.124;25.686;2023-10-31T12:26:37;3.47;;;1.80;;
14776;SDS011;7480;43.124;25.686;2023-10-31T12:29:12;3.67;;;1.83;;
14776;SDS011;7480;43.124;25.686;2023-10-31T12:31:52;3.72;;;2.50;;
14776;SDS011;7480;43.124;25.686;2023-10-31T12:34:21;3.63;;;1.85;;
14776;SDS011;7480;43.124;25.686;2023-10-31T12:36:50;2.90;;;1.92;;
14776;SDS011;7480;43.124;25.686;2023-10-31T12:39:20;1.90;;;1.55;;
14776;SDS011;7480;43.124;25.686;2023-10-31T12:41:48;2.88;;;1.63;;
14776;SDS011;7480;43.124;25.686;2023-10-31T12:44:17;3.75;;;1.70;;
14776;SDS011;7480;43.124;25.686;2023-10-31T12:46:55;2.97;;;1.80;;
14776;SDS011;7480;43.124;25.686;2023-10-31T12:49:22;2.70;;;1.70;;
14776;SDS011;7480;43.124;25.686;2023-10-31T12:57:04;3.67;;;1.90;;
14776;SDS011;7480;43.124;25.686;2023-10-31T12:59:33;2.70;;;2.08;;
14776;SDS011;7480;43.124;25.686;2023-10-31T13:02:00;3.22;;;1.98;;
14776;SDS011;7480;43.124;25.686;2023-10-31T13:04:28;4.18;;;1.92;;
14776;SDS011;7480;43.124;25.686;2023-10-31T13:09:32;2.72;;;1.60;;
14776;SDS011;7480;43.124;25.686;2023-10-31T13:12:00;2.83;;;1.90;;
14776;SDS011;7480;43.124;25.686;2023-10-31T13:14:28;1.90;;;1.70;;
14776;SDS011;7480;43.124;25.686;2023-10-31T13:16:55;3.78;;;1.95;;
14776;SDS011;7480;43.124;25.686;2023-10-31T13:19:22;2.13;;;1.90;;
14776;SDS011;7480;43.124;25.686;2023-10-31T13:21:49;3.50;;;2.00;;
14776;SDS011;7480;43.124;25.686;2023-10-31T13:24:16;5.50;;;1.85;;
14776;SDS011;7480;43.124;25.686;2023-10-31T13:26:43;3.83;;;1.98;;
14776;SDS011;7480;43.124;25.686;2023-10-31T13:29:11;3.67;;;1.70;;
14776;SDS011;7480;43.124;25.686;2023-10-31T13:31:38;2.58;;;1.70;;
14776;SDS011;7480;43.124;25.686;2023-10-31T13:34:04;2.13;;;1.75;;
14776;SDS011;7480;43.124;25.686;2023-10-31T13:36:32;1.90;;;1.70;;
14776;SDS011;7480;43.124;25.686;2023-10-31T13:38:58;3.35;;;2.03;;
14776;SDS011;7480;43.124;25.686;2023-10-31T13:41:25;3.92;;;2.10;;
14776;SDS011;7480;43.124;25.686;2023-10-31T13:43:53;4.00;;;2.30;;
14776;SDS011;7480;43.124;25.686;2023-10-31T13:46:20;4.00;;;2.00;;
14776;SDS011;7480;43.124;25.686;2023-10-31T13:48:47;6.35;;;2.10;;
14776;SDS011;7480;43.124;25.686;2023-10-31T13:51:13;3.08;;;1.80;;
14776;SDS011;7480;43.124;25.686;2023-10-31T13:53:40;4.93;;;2.00;;
14776;SDS011;7480;43.124;25.686;2023-10-31T13:56:07;3.55;;;1.95;;
14776;SDS011;7480;43.124;25.686;2023-10-31T13:58:34;3.45;;;1.92;;
14776;SDS011;7480;43.124;25.686;2023-10-31T14:01:00;3.65;;;2.20;;
14776;SDS011;7480;43.124;25.686;2023-10-31T14:03:27;3.58;;;1.90;;
14776;SDS011;7480;43.124;25.686;2023-10-31T14:05:54;2.83;;;1.98;;
14776;SDS011;7480;43.124;25.686;2023-10-31T14:08:21;4.75;;;2.22;;
14776;SDS011;7480;43.124;25.686;2023-10-31T14:10:48;4.05;;;2.10;;
14776;SDS011;7480;43.124;25.686;2023-10-31T14:13:15;3.97;;;2.17;;
14776;SDS011;7480;43.124;25.686;2023-10-31T14:15:43;3.67;;;2.05;;
14776;SDS011;7480;43.124;25.686;2023-10-31T14:18:10;5.10;;;2.30;;
14776;SDS011;7480;43.124;25.686;2023-10-31T14:20:36;2.30;;;2.05;;
14776;SDS011;7480;43.124;25.686;2023-10-31T14:23:06;3.63;;;2.15;;
14776;SDS011;7480;43.124;25.686;2023-10-31T14:25:32;3.00;;;2.40;;
14776;SDS011;7480;43.124;25.686;2023-10-31T14:27:59;3.80;;;2.17;;
14776;SDS011;7480;43.124;25.686;2023-10-31T14:30:26;4.65;;;2.78;;
14776;SDS011;7480;43.124;25.686;2023-10-31T14:32:52;5.95;;;2.00;;
14776;SDS011;7480;43.124;25.686;2023-10-31T14:35:19;5.18;;;2.55;;
14776;SDS011;7480;43.124;25.686;2023-10-31T14:37:46;6.88;;;2.30;;
14776;SDS011;7480;43.124;25.686;2023-10-31T14:40:12;4.60;;;2.30;;
14776;SDS011;7480;43.124;25.686;2023-10-31T14:42:39;6.95;;;2.30;;
14776;SDS011;7480;43.124;25.686;2023-10-31T14:45:06;5.33;;;2.90;;
14776;SDS011;7480;43.124;25.686;2023-10-31T14:47:33;5.90;;;2.30;;
14776;SDS011;7480;43.124;25.686;2023-10-31T14:50:00;2.50;;;2.30;;
14776;SDS011;7480;43.124;25.686;2023-10-31T14:52:27;4.77;;;2.33;;
14776;SDS011;7480;43.124;25.686;2023-10-31T14:54:53;3.30;;;2.33;;
14776;SDS011;7480;43.124;25.686;2023-10-31T14:57:20;4.50;;;2.40;;
14776;SDS011;7480;43.124;25.686;2023-10-31T14:59:47;3.17;;;2.30;;
14776;SDS011;7480;43.124;25.686;2023-10-31T15:02:15;4.70;;;2.30;;
14776;SDS011;7480;43.124;25.686;2023-10-31T15:04:41;2.43;;;2.13;;
14776;SDS011;7480;43.124;25.686;2023-10-31T15:07:08;5.37;;;2.50;;
14776;SDS011;7480;43.124;25.686;2023-10-31T15:09:35;3.43;;;2.53;;
14776;SDS011;7480;43.124;25.686;2023-10-31T15:12:02;3.90;;;2.37;;